Time;durP1;ratioP1;P1;durP2;ratioP2;P2;SDS_P1;SDS_P2;PMS_P1;PMS_P2;Temp;Humidity;BMP_temperature;BMP_pressure;BME280_temperature;BME280_humidity;BME280_pressure;Samples;Min_cycle;Max_cycle;Signal;HPM_P1;HPM_P2
2022/06/10 00:00:27;;;;;;;6.25;2.90;;;14.90;99.90;;;;;;5010758;28;20054;-47
2022/06/10 00:02:53;;;;;;;9.52;3.20;;;14.90;99.90;;;;;;5012584;28;20113;-48
2022/06/10 00:05:22;;;;;;;3.65;2.85;;;14.80;99.90;;;;;;5011347;28;20113;-48
2022/06/10 00:07:48;;;;;;;7.07;3.00;;;14.80;99.90;;;;;;5012602;28;20029;-47
2022/06/10 00:10:15;;;;;;;7.13;3.13;;;14.70;99.90;;;;;;5011846;28;20038;-49
2022/06/10 00:12:41;;;;;;;4.93;2.67;;;14.70;99.90;;;;;;5015654;28;20554;-47
2022/06/10 00:15:08;;;;;;;4.72;2.95;;;14.60;99.90;;;;;;5030310;28;20398;-48
2022/06/10 00:17:33;;;;;;;3.80;3.00;;;14.60;99.90;;;;;;5011052;28;20506;-46
2022/06/10 00:19:59;;;;;;;6.60;3.55;;;14.50;99.90;;;;;;5011529;28;20026;-49
2022/06/10 00:22:25;;;;;;;3.88;2.78;;;14.50;99.90;;;;;;5012189;28;20026;-46
2022/06/10 00:24:51;;;;;;;4.13;3.05;;;14.50;99.90;;;;;;5012287;28;20041;-47
2022/06/10 00:27:18;;;;;;;10.70;3.60;;;14.40;99.90;;;;;;5012392;28;20026;-46
2022/06/10 00:29:44;;;;;;;4.40;2.70;;;14.40;99.90;;;;;;5011259;28;20026;-45
2022/06/10 00:32:09;;;;;;;4.20;2.53;;;14.30;99.90;;;;;;5012033;28;20076;-47
2022/06/10 00:34:36;;;;;;;4.65;2.80;;;14.30;99.90;;;;;;5012305;28;20026;-52
2022/06/10 00:37:03;;;;;;;4.13;2.72;;;14.30;99.90;;;;;;5012190;28;20403;-48
2022/06/10 00:39:29;;;;;;;3.80;3.25;;;14.20;99.90;;;;;;5011752;28;20509;-50
2022/06/10 00:41:55;;;;;;;5.50;3.10;;;14.10;99.90;;;;;;5010437;28;20068;-47
2022/06/10 00:44:40;;;;;;;5.97;3.10;;;14.10;99.90;;;;;;5028467;28;20394;-47
2022/06/10 00:47:20;;;;;;;5.68;2.97;;;14.10;99.90;;;;;;5015514;28;20057;-48
2022/06/10 00:49:50;;;;;;;8.40;3.20;;;14.00;99.90;;;;;;5011350;28;20476;-48
2022/06/10 00:52:24;;;;;;;4.72;3.22;;;13.90;99.90;;;;;;5011787;28;20032;-47
2022/06/10 00:54:52;;;;;;;6.05;3.30;;;13.90;99.90;;;;;;5011871;28;20034;-50
2022/06/10 00:57:22;;;;;;;6.45;3.75;;;13.80;99.90;;;;;;5010606;28;20038;-47
2022/06/10 00:59:53;;;;;;;5.80;3.53;;;13.80;99.90;;;;;;5009583;28;20026;-47
2022/06/10 01:02:22;;;;;;;5.32;3.03;;;13.70;99.90;;;;;;5008807;28;20125;-51
2022/06/10 01:04:47;;;;;;;4.30;3.13;;;13.60;99.90;;;;;;5010121;28;20034;-47
2022/06/10 01:07:17;;;;;;;3.63;3.30;;;13.60;99.90;;;;;;5011263;28;20505;-47
2022/06/10 01:09:45;;;;;;;5.70;3.50;;;13.60;99.90;;;;;;5010604;28;20396;-48
2022/06/10 01:12:32;;;;;;;5.47;3.10;;;13.50;99.90;;;;;;5011295;28;20026;-49
2022/06/10 01:15:30;;;;;;;3.63;3.30;;;13.50;99.90;;;;;;5025885;28;20584;-49
2022/06/10 01:18:36;;;;;;;4.75;3.10;;;13.50;99.90;;;;;;5002460;28;20124;-47
2022/06/10 01:21:27;;;;;;;6.70;3.63;;;13.50;99.90;;;;;;4977185;28;20502;-49
2022/06/10 01:24:17;;;;;;;4.68;2.95;;;13.40;99.90;;;;;;5011157;28;20081;-47
2022/06/10 01:30:10;;;;;;;7.57;3.43;;;13.30;99.90;;;;;;5010191;28;20056;-50
2022/06/10 01:33:01;;;;;;;4.72;2.90;;;13.20;99.90;;;;;;5010942;28;20061;-47
2022/06/10 01:35:48;;;;;;;4.10;3.13;;;13.20;99.90;;;;;;5010892;28;20502;-48
2022/06/10 01:38:43;;;;;;;6.43;3.75;;;13.10;99.90;;;;;;5010766;28;20049;-47
2022/06/10 01:41:14;;;;;;;5.22;4.03;;;13.10;99.90;;;;;;5010157;28;20494;-48
2022/06/10 01:44:09;;;;;;;6.55;4.75;;;13.20;99.90;;;;;;5022002;28;20033;-49
2022/06/10 01:46:39;;;;;;;6.43;4.18;;;13.20;99.90;;;;;;5029915;28;20017;-48
2022/06/10 01:49:20;;;;;;;4.35;3.75;;;13.30;99.90;;;;;;5029778;28;20092;-49
2022/06/10 01:51:51;;;;;;;;;;;13.20;99.90;;;;;;5028235;28;20269;-51
2022/06/10 01:54:23;;;;;;;9.43;4.43;;;13.20;99.90;;;;;;5029854;28;19943;-47
2022/06/10 01:56:51;;;;;;;5.40;3.70;;;13.10;99.90;;;;;;5029896;28;20079;-49
2022/06/10 01:59:23;;;;;;;5.47;3.50;;;13.20;99.90;;;;;;5029476;28;20017;-46
2022/06/10 02:01:58;;;;;;;4.93;3.40;;;13.20;99.90;;;;;;5029112;28;20021;-49
2022/06/10 02:04:30;;;;;;;3.80;3.35;;;13.00;99.90;;;;;;5027908;28;20014;-50
2022/06/10 02:07:26;;;;;;;4.68;3.47;;;13.00;99.90;;;;;;5030004;28;20288;-50
2022/06/10 02:09:59;;;;;;;6.70;3.35;;;12.90;99.90;;;;;;5027247;28;20081;-48
2022/06/10 02:12:51;;;;;;;5.68;3.55;;;12.80;99.90;;;;;;5029646;28;20029;-49
2022/06/10 02:15:31;;;;;;;6.35;3.75;;;12.80;99.90;;;;;;5028538;28;20026;-49
2022/06/10 02:18:06;;;;;;;6.55;4.20;;;12.70;99.90;;;;;;5029435;28;20072;-51
2022/06/10 02:20:35;;;;;;;5.47;4.47;;;12.70;99.90;;;;;;5028810;28;20112;-46
2022/06/10 02:23:04;;;;;;;8.27;4.38;;;12.70;99.90;;;;;;5026752;28;20021;-47
2022/06/10 02:25:37;;;;;;;9.30;4.60;;;12.70;99.90;;;;;;5029664;28;20026;-47
2022/06/10 02:28:08;;;;;;;7.15;4.50;;;12.70;99.90;;;;;;5027267;28;20220;-47
2022/06/10 02:30:52;;;;;;;4.40;3.55;;;12.70;99.90;;;;;;5028709;28;20014;-49
2022/06/10 02:33:17;;;;;;;6.22;3.67;;;12.70;99.90;;;;;;5029012;28;20041;-48
2022/06/10 02:36:02;;;;;;;4.75;3.85;;;12.60;99.90;;;;;;5027746;28;20064;-46
2022/06/10 02:38:46;;;;;;;4.03;3.63;;;12.50;99.90;;;;;;5027431;28;20029;-47
2022/06/10 02:41:23;;;;;;;6.07;3.25;;;12.50;99.90;;;;;;5027452;28;20111;-48
2022/06/10 02:44:11;;;;;;;4.15;3.58;;;12.40;99.90;;;;;;5027234;28;20107;-49
2022/06/10 02:46:50;;;;;;;4.88;3.53;;;12.40;99.90;;;;;;5020368;28;20381;-48
2022/06/10 02:49:18;;;;;;;6.85;3.53;;;12.30;99.90;;;;;;5029310;28;20044;-49
2022/06/10 02:51:46;;;;;;;6.10;4.80;;;12.40;99.90;;;;;;5028245;28;20055;-49
2022/06/10 02:54:16;;;;;;;9.98;5.15;;;12.40;99.90;;;;;;5028930;28;20033;-48
2022/06/10 02:56:42;;;;;;;9.90;5.97;;;12.50;99.90;;;;;;5029489;28;20390;-46
2022/06/10 03:02:12;;;;;;;8.52;4.00;;;12.50;99.90;;;;;;5028714;28;20047;-50
2022/06/10 03:05:05;;;;;;;6.50;4.35;;;12.50;99.90;;;;;;5029197;28;20049;-47
2022/06/10 03:07:53;;;;;;;8.25;5.35;;;12.50;99.90;;;;;;5029103;28;20057;-48
2022/06/10 03:10:21;;;;;;;8.40;6.93;;;12.50;99.90;;;;;;5028329;28;20025;-46
2022/06/10 03:13:12;;;;;;;7.57;4.97;;;12.50;99.90;;;;;;5028793;28;20028;-47
2022/06/10 03:15:55;;;;;;;9.82;6.60;;;12.50;99.90;;;;;;5036286;28;20025;-47
2022/06/10 03:18:39;;;;;;;7.40;5.78;;;12.50;99.90;;;;;;5028840;28;20040;-47
2022/06/10 03:21:37;;;;;;;7.97;5.50;;;12.50;99.90;;;;;;5028051;28;20101;-46
2022/06/10 03:24:27;;;;;;;7.50;5.50;;;12.50;99.90;;;;;;5027082;28;20128;-46
2022/06/10 03:26:59;;;;;;;7.35;5.63;;;12.50;99.90;;;;;;5028811;28;20033;-48
2022/06/10 03:29:33;;;;;;;8.45;5.82;;;12.50;99.90;;;;;;5028231;28;20029;-49
2022/06/10 03:32:10;;;;;;;9.82;5.78;;;12.40;99.90;;;;;;5028640;28;20040;-46
2022/06/10 03:34:42;;;;;;;8.63;5.22;;;12.50;99.90;;;;;;5028786;28;20486;-46
2022/06/10 03:37:09;;;;;;;11.10;6.03;;;12.50;99.90;;;;;;5026880;28;20057;-46
2022/06/10 03:39:35;;;;;;;9.20;6.60;;;12.60;99.90;;;;;;5025551;28;20479;-46
2022/06/10 03:42:12;;;;;;;9.75;6.57;;;12.60;99.90;;;;;;5027997;28;20029;-46
2022/06/10 03:44:39;;;;;;;7.88;5.22;;;12.70;99.90;;;;;;5027257;28;20041;-45
2022/06/10 03:47:07;;;;;;;9.10;6.47;;;12.70;99.90;;;;;;5027816;28;20510;-48
2022/06/10 03:49:44;;;;;;;8.82;6.05;;;12.80;99.90;;;;;;5026907;28;20036;-47
2022/06/10 03:52:18;;;;;;;10.35;5.75;;;12.80;99.90;;;;;;5027068;28;20105;-47
2022/06/10 03:54:43;;;;;;;8.88;5.35;;;12.80;99.90;;;;;;5026170;28;20112;-49
2022/06/10 03:57:08;;;;;;;10.40;5.20;;;12.90;99.90;;;;;;5027140;28;20109;-45
2022/06/10 03:59:34;;;;;;;11.60;6.22;;;12.90;99.90;;;;;;5026721;28;20314;-48
2022/06/10 04:01:59;;;;;;;7.70;5.25;;;12.90;99.90;;;;;;5027472;28;20104;-46
2022/06/10 04:04:25;;;;;;;7.55;4.97;;;12.90;99.90;;;;;;5027518;28;20156;-47
2022/06/10 04:06:50;;;;;;;10.15;5.82;;;12.90;99.90;;;;;;5027231;28;20032;-46
2022/06/10 04:09:16;;;;;;;9.40;5.63;;;12.90;99.90;;;;;;5026133;28;20351;-46
2022/06/10 04:11:41;;;;;;;13.38;5.82;;;13.00;99.90;;;;;;5025385;28;20034;-45
2022/06/10 04:14:07;;;;;;;12.70;5.93;;;13.00;99.90;;;;;;5026870;28;20204;-47
2022/06/10 04:16:33;;;;;;;9.82;5.45;;;13.00;99.90;;;;;;5026844;28;20049;-46
2022/06/10 04:18:58;;;;;;;9.38;5.40;;;13.10;99.90;;;;;;5027006;28;20044;-48
2022/06/10 04:21:24;;;;;;;8.00;5.10;;;13.10;99.90;;;;;;5027005;28;20383;-46
2022/06/10 04:23:50;;;;;;;10.07;5.47;;;13.10;99.90;;;;;;5027744;28;20395;-46
2022/06/10 04:26:15;;;;;;;11.40;6.10;;;13.20;99.90;;;;;;5028002;28;20108;-47
2022/06/10 04:28:41;;;;;;;9.90;6.35;;;13.20;99.90;;;;;;5028093;28;20034;-46
2022/06/10 04:31:06;;;;;;;6.93;4.72;;;13.20;99.90;;;;;;5026013;28;20025;-46
2022/06/10 04:33:34;;;;;;;8.10;5.15;;;13.30;99.90;;;;;;5027586;28;20014;-46
2022/06/10 04:36:00;;;;;;;8.98;5.10;;;13.40;99.90;;;;;;5028566;28;20026;-46
2022/06/10 04:38:25;;;;;;;9.80;4.80;;;13.50;99.90;;;;;;5031926;28;20477;-47
2022/06/10 04:40:51;;;;;;;6.10;4.85;;;13.50;99.90;;;;;;5030533;28;20043;-46
2022/06/10 04:43:16;;;;;;;16.20;7.00;;;13.60;99.90;;;;;;5031217;28;20033;-46
2022/06/10 04:45:50;;;;;;;7.53;5.65;;;13.50;99.90;;;;;;5028034;28;20033;-47
2022/06/10 04:48:16;;;;;;;6.50;4.47;;;13.60;99.90;;;;;;5031164;28;20022;-46
2022/06/10 04:50:43;;;;;;;10.27;5.68;;;13.60;99.90;;;;;;5022952;28;20059;-45
2022/06/10 04:53:09;;;;;;;8.95;5.85;;;13.70;99.90;;;;;;5030757;28;20018;-48
2022/06/10 04:55:35;;;;;;;9.73;5.50;;;13.70;99.90;;;;;;5028600;28;20080;-48
2022/06/10 04:58:00;;;;;;;11.65;4.82;;;13.80;99.90;;;;;;5031234;28;20060;-46
2022/06/10 05:00:37;;;;;;;8.80;5.63;;;13.80;99.90;;;;;;5025419;28;20088;-46
2022/06/10 05:03:03;;;;;;;10.20;5.78;;;13.90;99.90;;;;;;5020859;28;20029;-46
2022/06/10 05:05:29;;;;;;;9.77;5.00;;;13.90;99.90;;;;;;5017659;28;20071;-46
2022/06/10 05:07:55;;;;;;;9.07;5.03;;;14.00;99.90;;;;;;5025228;28;20029;-46
2022/06/10 05:10:21;;;;;;;10.05;4.90;;;14.00;99.90;;;;;;5010938;28;20022;-49
2022/06/10 05:12:47;;;;;;;8.60;5.32;;;14.00;99.90;;;;;;5015412;28;20107;-46
2022/06/10 05:15:14;;;;;;;8.02;4.72;;;14.10;99.90;;;;;;5029813;28;20029;-49
2022/06/10 05:17:40;;;;;;;14.57;6.88;;;14.10;99.90;;;;;;5011129;28;20041;-47
2022/06/10 05:20:07;;;;;;;11.43;4.97;;;14.20;99.90;;;;;;5009141;28;20491;-46
2022/06/10 05:22:33;;;;;;;12.25;5.22;;;14.20;99.90;;;;;;5011382;28;20026;-47
2022/06/10 05:25:00;;;;;;;9.55;5.55;;;14.30;99.90;;;;;;5011157;28;20054;-46
2022/06/10 05:27:25;;;;;;;7.65;4.13;;;14.40;99.90;;;;;;5025475;28;20026;-46
2022/06/10 05:29:51;;;;;;;8.32;4.82;;;14.40;99.90;;;;;;5030106;28;20029;-46
2022/06/10 05:32:17;;;;;;;5.43;3.90;;;14.50;99.90;;;;;;5030789;28;20036;-47
2022/06/10 05:34:46;;;;;;;9.88;5.05;;;14.50;99.90;;;;;;5030320;28;20024;-46
2022/06/10 05:37:20;;;;;;;12.02;5.18;;;14.60;99.90;;;;;;5030413;28;20025;-46
2022/06/10 05:39:46;;;;;;;15.27;5.38;;;14.70;99.90;;;;;;5029734;28;20025;-46
2022/06/10 05:42:12;;;;;;;6.32;4.47;;;14.70;99.90;;;;;;5028771;28;20048;-45
2022/06/10 05:44:43;;;;;;;7.85;4.10;;;14.80;99.90;;;;;;5028280;28;20025;-46
2022/06/10 05:47:16;;;;;;;10.52;4.70;;;14.80;99.90;;;;;;5029130;28;20025;-53
2022/06/10 05:49:43;;;;;;;8.45;4.78;;;14.90;99.90;;;;;;5029274;28;20219;-50
2022/06/10 05:52:10;;;;;;;6.13;3.67;;;15.00;99.90;;;;;;5027410;28;20061;-46
2022/06/10 05:54:41;;;;;;;13.27;4.07;;;15.10;99.90;;;;;;5017945;28;20040;-46
2022/06/10 05:57:07;;;;;;;8.23;5.10;;;15.10;99.90;;;;;;5015436;28;20046;-47
2022/06/10 05:59:33;;;;;;;10.73;4.75;;;15.20;99.90;;;;;;5018122;28;20021;-47
2022/06/10 06:02:02;;;;;;;8.32;4.32;;;15.30;99.90;;;;;;5017422;28;20356;-46
2022/06/10 06:04:28;;;;;;;7.90;4.00;;;15.30;99.90;;;;;;5018200;28;21084;-46
2022/06/10 06:06:53;;;;;;;9.02;3.67;;;15.30;99.90;;;;;;5020773;28;20091;-49
2022/06/10 06:09:20;;;;;;;6.40;3.90;;;15.40;99.90;;;;;;5019320;28;20018;-49
2022/06/10 06:11:47;;;;;;;7.85;3.75;;;15.40;99.90;;;;;;5018491;28;20029;-46
2022/06/10 06:14:13;;;;;;;8.63;3.90;;;15.50;99.90;;;;;;5023740;28;20018;-46
2022/06/10 06:16:39;;;;;;;9.45;4.07;;;15.60;99.90;;;;;;5022723;28;20014;-46
2022/06/10 06:19:05;;;;;;;10.27;3.75;;;15.70;99.90;;;;;;5019963;28;20022;-46
2022/06/10 06:21:31;;;;;;;7.32;3.20;;;15.70;99.90;;;;;;5017879;28;20028;-46
2022/06/10 06:23:57;;;;;;;7.93;2.65;;;15.80;99.90;;;;;;5020501;28;20375;-46
2022/06/10 06:26:23;;;;;;;5.30;3.10;;;15.80;99.90;;;;;;5019428;28;20491;-46
2022/06/10 06:28:48;;;;;;;10.68;4.10;;;15.90;99.90;;;;;;5018312;28;20042;-46
2022/06/10 06:31:14;;;;;;;9.40;3.33;;;16.00;99.90;;;;;;5017156;28;20014;-48
2022/06/10 06:33:41;;;;;;;11.05;3.63;;;16.10;99.90;;;;;;5019759;28;20369;-48
2022/06/10 06:36:09;;;;;;;9.65;3.45;;;16.10;99.90;;;;;;5019756;28;20372;-47
2022/06/10 06:38:34;;;;;;;11.73;3.42;;;16.20;99.90;;;;;;5020833;28;20025;-47
2022/06/10 06:41:00;;;;;;;8.98;3.20;;;16.30;99.90;;;;;;5018411;28;20029;-46
2022/06/10 06:43:26;;;;;;;5.57;2.97;;;16.40;99.90;;;;;;5022467;28;20022;-47
2022/06/10 06:45:51;;;;;;;8.55;3.55;;;16.40;99.90;;;;;;5022997;28;20426;-46
2022/06/10 06:48:17;;;;;;;5.53;2.70;;;16.50;99.90;;;;;;5022297;28;20091;-46
2022/06/10 06:50:46;;;;;;;11.18;4.00;;;16.60;99.90;;;;;;5026788;28;20387;-46
2022/06/10 06:53:12;;;;;;;8.63;3.20;;;16.70;99.90;;;;;;5015032;28;20096;-47
2022/06/10 06:55:39;;;;;;;10.38;3.22;;;16.80;99.90;;;;;;5028655;28;20148;-46
2022/06/10 06:58:07;;;;;;;11.20;3.45;;;16.90;99.90;;;;;;5029018;28;20112;-46
2022/06/10 07:00:33;;;;;;;9.73;3.58;;;16.90;99.90;;;;;;5023810;28;20025;-46
2022/06/10 07:02:58;;;;;;;6.70;2.70;;;17.00;99.90;;;;;;5029383;28;20108;-46
2022/06/10 07:05:24;;;;;;;11.02;3.20;;;17.10;99.90;;;;;;5029315;28;20124;-46
2022/06/10 07:07:50;;;;;;;7.60;3.95;;;17.10;99.90;;;;;;5028980;28;20386;-50
2022/06/10 07:10:18;;;;;;;7.70;2.95;;;17.20;99.90;;;;;;5028264;28;20075;-49
2022/06/10 07:12:43;;;;;;;8.25;3.10;;;17.20;99.90;;;;;;5028910;28;20033;-47
2022/06/10 07:15:10;;;;;;;4.40;2.75;;;17.40;99.90;;;;;;5028195;28;20083;-47
2022/06/10 07:17:35;;;;;;;8.57;3.05;;;17.50;99.90;;;;;;5009215;28;20030;-48
2022/06/10 07:20:04;;;;;;;10.60;3.33;;;17.60;99.90;;;;;;5007454;28;20372;-46
2022/06/10 07:22:30;;;;;;;6.70;3.05;;;17.60;99.90;;;;;;5009151;28;20057;-49
2022/06/10 07:24:55;;;;;;;12.23;2.78;;;17.70;99.90;;;;;;5009143;28;20487;-48
2022/06/10 07:27:21;;;;;;;8.55;2.92;;;17.80;99.90;;;;;;5008945;28;20040;-47
2022/06/10 07:29:47;;;;;;;9.45;2.47;;;17.80;99.90;;;;;;5008149;28;20049;-47
2022/06/10 07:32:13;;;;;;;9.82;2.85;;;18.00;99.90;;;;;;5007621;28;20034;-48
2022/06/10 07:34:38;;;;;;;12.02;3.33;;;18.20;99.90;;;;;;5015333;28;20045;-46
2022/06/10 07:37:04;;;;;;;8.27;3.25;;;18.30;99.90;;;;;;5028467;28;20378;-46
2022/06/10 07:39:32;;;;;;;5.85;2.78;;;18.30;99.90;;;;;;5025475;28;20014;-47
2022/06/10 07:42:00;;;;;;;8.70;3.00;;;18.40;99.90;;;;;;5023305;28;20075;-46
2022/06/10 07:44:31;;;;;;;11.40;3.63;;;18.60;99.90;;;;;;5025521;28;20013;-50
2022/06/10 07:46:59;;;;;;;12.60;3.40;;;18.70;99.90;;;;;;5019082;28;20045;-47
2022/06/10 07:49:25;;;;;;;13.18;3.38;;;18.90;99.90;;;;;;5023017;28;20029;-50
2022/06/10 07:51:50;;;;;;;7.68;2.70;;;19.00;99.90;;;;;;5027558;28;20056;-48
2022/06/10 07:54:16;;;;;;;12.25;3.33;;;19.10;99.90;;;;;;5020640;28;20498;-47
2022/06/10 07:56:42;;;;;;;8.07;3.03;;;19.20;99.90;;;;;;5023324;28;20044;-49
2022/06/10 07:59:09;;;;;;;8.65;2.55;;;19.30;99.90;;;;;;5027852;28;20029;-46
2022/06/10 08:01:35;;;;;;;8.98;3.55;;;19.60;99.90;;;;;;5026532;28;20022;-49
2022/06/10 08:04:01;;;;;;;8.13;2.63;;;19.80;98.90;;;;;;5027664;28;20498;-47
2022/06/10 08:06:28;;;;;;;11.70;3.22;;;20.00;98.70;;;;;;5018959;28;20018;-48
2022/06/10 08:08:54;;;;;;;10.93;2.60;;;20.30;98.80;;;;;;5027588;28;20032;-47
2022/06/10 08:11:20;;;;;;;7.32;2.03;;;20.80;98.10;;;;;;5029193;28;20029;-47
2022/06/10 08:13:46;;;;;;;6.28;2.63;;;21.70;96.20;;;;;;5031107;28;20014;-47
2022/06/10 08:16:13;;;;;;;7.72;2.53;;;22.70;93.50;;;;;;5025655;28;20040;-49
2022/06/10 08:18:39;;;;;;;4.85;1.95;;;23.70;90.80;;;;;;5022388;28;20117;-46
2022/06/10 08:23:50;;;;;;;6.43;2.33;;;25.60;83.20;;;;;;5023672;28;20060;-47
2022/06/10 08:26:16;;;;;;;3.75;1.90;;;26.30;81.60;;;;;;5016423;28;20510;-46
2022/06/10 08:28:44;;;;;;;4.93;1.92;;;27.20;74.70;;;;;;5023472;28;20038;-46
2022/06/10 08:31:10;;;;;;;7.53;2.17;;;27.80;68.00;;;;;;5024859;28;20025;-46
2022/06/10 08:33:38;;;;;;;7.00;1.90;;;28.10;69.50;;;;;;5022809;28;20024;-49
2022/06/10 08:36:05;;;;;;;6.72;2.22;;;28.40;66.00;;;;;;5023542;28;20075;-46
2022/06/10 08:38:30;;;;;;;7.60;2.10;;;28.80;63.30;;;;;;5024520;28;20025;-49
2022/06/10 08:41:07;;;;;;;6.95;2.30;;;29.20;60.80;;;;;;5027835;28;20410;-49
2022/06/10 08:43:38;;;;;;;6.90;2.05;;;29.80;59.80;;;;;;5027475;28;20433;-49
2022/06/10 08:46:33;;;;;;;6.20;1.90;;;30.50;58.40;;;;;;5026486;28;20083;-50
2022/06/10 08:49:06;;;;;;;5.47;2.00;;;30.70;57.00;;;;;;5019544;28;20033;-47
2022/06/10 08:51:52;;;;;;;7.65;1.98;;;31.20;53.70;;;;;;5017370;28;20038;-50
2022/06/10 08:54:36;;;;;;;7.22;2.00;;;31.90;52.90;;;;;;5027123;28;20375;-47
2022/06/10 08:57:19;;;;;;;7.40;2.00;;;32.30;50.10;;;;;;5025847;28;20025;-47
2022/06/10 08:59:47;;;;;;;7.53;2.00;;;32.70;50.00;;;;;;5026464;28;20037;-48
2022/06/10 09:02:27;;;;;;;5.82;2.00;;;33.00;48.70;;;;;;5029778;28;20497;-50
2022/06/10 09:05:20;;;;;;;8.65;2.53;;;32.80;48.90;;;;;;5029938;28;20452;-48
2022/06/10 09:07:59;;;;;;;7.20;2.35;;;33.30;47.00;;;;;;5031166;28;20029;-49
2022/06/10 09:10:42;;;;;;;8.07;2.27;;;33.50;46.90;;;;;;5030535;28;20112;-48
2022/06/10 09:13:29;;;;;;;6.38;2.22;;;32.70;45.70;;;;;;5030528;28;20021;-49
2022/06/10 09:16:18;;;;;;;8.48;2.30;;;32.70;48.40;;;;;;5024048;28;20038;-48
2022/06/10 09:19:33;;;;;;;6.18;1.77;;;32.80;46.40;;;;;;5011303;28;20026;-49
2022/06/10 09:22:05;;;;;;;7.22;2.55;;;33.70;46.10;;;;;;5009966;28;20034;-49
2022/06/10 09:24:54;;;;;;;4.70;1.92;;;33.10;45.40;;;;;;5010783;28;20026;-48
2022/06/10 09:27:25;;;;;;;;;;;31.50;48.00;;;;;;5010059;28;20369;-49
2022/06/10 09:29:51;;;;;;;8.82;2.47;;;31.10;47.00;;;;;;5010437;28;20374;-47
2022/06/10 09:32:41;;;;;;;8.32;4.65;;;31.40;46.70;;;;;;5010967;28;20028;-50
2022/06/10 09:35:17;;;;;;;5.53;2.25;;;32.10;49.10;;;;;;5011045;28;20032;-50
2022/06/10 09:37:55;;;;;;;7.32;1.95;;;32.90;47.00;;;;;;5009790;28;20509;-46
2022/06/10 09:40:38;;;;;;;4.63;1.85;;;31.60;47.30;;;;;;5010461;28;20033;-48
2022/06/10 09:43:27;;;;;;;8.02;2.28;;;30.90;47.80;;;;;;5017583;28;20025;-49
2022/06/10 09:46:15;;;;;;;5.57;2.15;;;30.30;48.80;;;;;;5024707;28;20076;-49
2022/06/10 09:48:47;;;;;;;7.45;2.78;;;31.10;49.40;;;;;;5030818;28;20033;-48
2022/06/10 09:51:20;;;;;;;6.78;2.33;;;30.40;47.60;;;;;;5029653;28;20033;-49
2022/06/10 09:53:57;;;;;;;7.20;2.00;;;30.40;47.70;;;;;;5029942;28;20031;-49
2022/06/10 09:56:52;;;;;;;5.72;2.60;;;30.60;48.50;;;;;;5030595;28;20478;-47
2022/06/10 09:59:42;;;;;;;5.22;2.15;;;31.10;48.30;;;;;;5030264;28;20534;-48
2022/06/10 10:02:37;;;;;;;7.20;2.47;;;31.60;48.30;;;;;;5030152;28;20025;-47
2022/06/10 10:05:31;;;;;;;9.88;2.40;;;31.90;45.20;;;;;;5030081;28;20038;-47
2022/06/10 10:08:00;;;;;;;5.55;2.15;;;31.70;47.10;;;;;;5030335;28;20241;-48
2022/06/10 10:10:39;;;;;;;7.70;2.17;;;32.30;46.20;;;;;;5029396;28;20375;-49
2022/06/10 10:13:26;;;;;;;;;;;32.70;45.90;;;;;;5029270;28;20021;-47
2022/06/10 10:16:06;;;;;;;10.43;2.40;;;33.40;46.00;;;;;;5023818;28;20290;-50
2022/06/10 10:18:55;;;;;;;8.85;2.45;;;34.50;43.40;;;;;;5029034;28;20033;-49
2022/06/10 10:21:44;;;;;;;9.75;2.20;;;33.60;43.70;;;;;;5029370;28;20030;-48
2022/06/10 10:24:20;;;;;;;5.13;2.00;;;34.20;45.60;;;;;;5029744;28;20037;-49
2022/06/10 10:26:47;;;;;;;5.13;2.20;;;35.20;43.80;;;;;;5029711;28;20395;-50
2022/06/10 10:29:21;;;;;;;4.05;1.52;;;34.80;42.70;;;;;;5029577;28;20506;-48
2022/06/10 10:32:01;;;;;;;9.13;2.20;;;35.00;42.30;;;;;;5027363;28;20076;-51
2022/06/10 10:34:34;;;;;;;9.05;2.60;;;35.20;42.20;;;;;;5027476;28;20105;-46
2022/06/10 10:37:03;;;;;;;5.82;2.50;;;34.40;42.80;;;;;;5026697;28;20376;-49
2022/06/10 10:39:36;;;;;;;7.73;2.70;;;33.90;41.10;;;;;;5028708;28;20032;-47
2022/06/10 10:42:18;;;;;;;6.35;2.05;;;32.10;42.60;;;;;;5026475;28;20027;-48
2022/06/10 10:44:49;;;;;;;5.65;1.80;;;30.80;45.80;;;;;;5027200;28;20032;-47
2022/06/10 10:47:22;;;;;;;6.10;2.83;;;29.60;47.90;;;;;;5028820;28;20359;-48
2022/06/10 10:49:51;;;;;;;7.93;2.45;;;28.50;50.10;;;;;;5028193;28;20483;-47
2022/06/10 10:52:45;;;;;;;9.23;2.67;;;28.30;51.70;;;;;;5029014;28;20034;-47
2022/06/10 10:55:11;;;;;;;8.02;1.90;;;28.00;50.50;;;;;;5028178;28;20228;-46
2022/06/10 10:57:42;;;;;;;6.25;2.03;;;27.30;50.80;;;;;;5029407;28;20075;-47
2022/06/10 11:00:37;;;;;;;8.82;2.08;;;28.60;52.40;;;;;;5028551;28;20036;-50
2022/06/10 11:03:06;;;;;;;7.90;2.28;;;28.60;47.90;;;;;;5029278;28;20033;-47
2022/06/10 11:05:46;;;;;;;6.37;2.13;;;29.60;48.30;;;;;;5029503;28;20093;-49
2022/06/10 11:08:33;;;;;;;6.40;2.60;;;29.90;48.80;;;;;;5029308;28;20540;-47
2022/06/10 11:11:10;;;;;;;9.40;2.08;;;31.30;48.30;;;;;;5028298;28;20017;-46
2022/06/10 11:13:46;;;;;;;6.43;1.77;;;32.80;45.00;;;;;;5027565;28;20018;-46
2022/06/10 11:16:26;;;;;;;9.07;2.13;;;32.70;44.10;;;;;;5019792;28;20033;-49
2022/06/10 11:19:15;;;;;;;7.70;2.38;;;32.40;43.80;;;;;;5024426;28;20382;-47
2022/06/10 11:21:54;;;;;;;5.25;2.08;;;31.10;45.30;;;;;;5008442;28;20394;-49
2022/06/10 11:24:30;;;;;;;7.47;2.00;;;31.70;48.50;;;;;;5027302;28;20517;-47
2022/06/10 11:26:59;;;;;;;8.02;2.13;;;32.30;45.20;;;;;;5028477;28;20033;-48
2022/06/10 11:29:26;;;;;;;6.50;2.08;;;32.90;46.70;;;;;;5028333;28;20360;-50
2022/06/10 11:31:59;;;;;;;7.63;2.20;;;34.20;42.80;;;;;;5024812;28;20026;-48
2022/06/10 11:34:39;;;;;;;5.35;2.25;;;33.30;43.90;;;;;;5028761;28;20032;-47
2022/06/10 11:37:31;;;;;;;3.78;2.00;;;32.20;47.00;;;;;;5028622;28;20435;-50
2022/06/10 11:40:22;;;;;;;6.90;1.77;;;33.20;46.60;;;;;;5028195;28;20029;-48
2022/06/10 11:42:54;;;;;;;8.57;2.28;;;32.90;44.50;;;;;;5027205;28;20107;-48
2022/06/10 11:45:27;;;;;;;4.47;1.88;;;33.10;45.00;;;;;;5025656;28;20029;-48
2022/06/10 11:48:10;;;;;;;7.43;1.90;;;33.00;44.90;;;;;;5008654;28;20509;-46
2022/06/10 11:51:02;;;;;;;4.20;1.73;;;32.70;43.20;;;;;;5008275;28;20030;-47
2022/06/10 11:53:38;;;;;;;3.33;1.60;;;33.00;46.10;;;;;;5008818;28;20156;-49
2022/06/10 12:01:47;;;;;;;9.15;2.40;;;32.80;42.40;;;;;;5007694;28;20028;-47
2022/06/10 12:04:34;;;;;;;2.38;1.35;;;32.10;45.00;;;;;;5008683;28;20410;-50
2022/06/10 12:07:10;;;;;;;7.53;2.00;;;31.70;45.80;;;;;;5007373;28;20041;-48
2022/06/10 12:09:44;;;;;;;5.22;1.90;;;31.40;46.80;;;;;;5008043;28;20037;-49
2022/06/10 12:12:29;;;;;;;4.35;1.92;;;30.80;45.10;;;;;;5008553;28;20026;-48
2022/06/10 12:14:58;;;;;;;7.82;2.13;;;30.00;47.90;;;;;;5022995;28;20526;-47
2022/06/10 12:17:37;;;;;;;7.50;2.00;;;28.90;48.40;;;;;;5009867;28;20084;-47
2022/06/10 12:20:12;;;;;;;5.82;2.08;;;28.10;48.40;;;;;;5008108;28;20092;-46
2022/06/10 12:22:37;;;;;;;4.65;2.15;;;27.80;51.10;;;;;;5027233;28;20029;-46
2022/06/10 12:25:24;;;;;;;3.92;1.60;;;27.20;51.10;;;;;;5047231;28;20036;-46
2022/06/10 12:28:08;;;;;;;5.85;2.10;;;26.70;51.90;;;;;;5036920;28;20029;-46
2022/06/10 12:30:53;;;;;;;6.13;1.92;;;26.30;53.60;;;;;;5025526;28;20087;-46
2022/06/10 12:33:26;;;;;;;6.47;2.75;;;26.60;53.10;;;;;;5027313;28;20486;-48
2022/06/10 12:35:53;;;;;;;6.00;2.22;;;26.70;52.60;;;;;;5027685;28;20030;-48
2022/06/10 12:38:25;;;;;;;5.70;1.95;;;26.80;51.30;;;;;;5027744;28;20029;-46
2022/06/10 12:40:57;;;;;;;7.40;2.22;;;26.30;53.20;;;;;;5025687;28;20056;-46
2022/06/10 12:43:30;;;;;;;4.80;2.00;;;26.40;53.00;;;;;;5026940;28;20068;-45
2022/06/10 12:46:03;;;;;;;5.18;1.55;;;26.60;54.00;;;;;;5019544;28;20030;-46
2022/06/10 12:48:50;;;;;;;4.20;1.63;;;26.40;52.60;;;;;;5007740;28;20483;-46
2022/06/10 12:51:42;;;;;;;7.32;1.88;;;26.30;54.80;;;;;;5005454;28;20109;-45
2022/06/10 12:54:25;;;;;;;4.78;1.92;;;26.10;54.30;;;;;;5007455;28;20053;-48
2022/06/10 12:57:26;;;;;;;5.28;2.00;;;26.20;55.20;;;;;;5008469;28;20014;-46
2022/06/10 13:00:17;;;;;;;6.82;2.00;;;25.70;54.20;;;;;;5007771;28;20033;-48
2022/06/10 13:02:57;;;;;;;5.50;2.00;;;26.20;54.50;;;;;;5010810;28;20029;-47
2022/06/10 13:05:42;;;;;;;5.55;2.13;;;26.90;53.20;;;;;;5011098;28;20517;-47
2022/06/10 13:08:41;;;;;;;10.73;1.75;;;26.90;52.50;;;;;;5010796;28;20403;-45
2022/06/10 13:11:11;;;;;;;3.83;1.95;;;26.80;53.60;;;;;;5009292;28;20152;-46
2022/06/10 13:13:37;;;;;;;3.75;1.90;;;27.00;53.70;;;;;;5021334;28;20022;-48
2022/06/10 13:16:25;;;;;;;5.65;2.20;;;27.10;54.70;;;;;;5022760;28;20077;-51
2022/06/10 13:18:58;;;;;;;5.75;1.90;;;27.30;54.30;;;;;;5010793;28;20030;-50
2022/06/10 13:21:31;;;;;;;5.40;2.28;;;27.00;55.90;;;;;;5016720;28;20116;-48
2022/06/10 13:24:00;;;;;;;4.28;2.03;;;27.00;55.10;;;;;;5028162;28;20026;-49
2022/06/10 13:26:29;;;;;;;5.85;2.53;;;27.20;55.70;;;;;;5030307;28;20068;-50
2022/06/10 13:29:12;;;;;;;8.93;2.35;;;27.00;55.10;;;;;;5030135;28;20166;-49
2022/06/10 13:31:53;;;;;;;6.93;2.47;;;27.00;55.70;;;;;;5028045;28;20120;-48